Terminal Aerodrome Forecast
Issued by NWS Bismarck, ND

Home | Current Version | Previous Version | Graphics & Text | Print | Product List | Glossary On
Versions: 1 2 3 4 5 6 7 8 9 10 11 12 13 14 15 16 17 18 19 20 21
000
FTUS43 KBIS 260200 AAA
TAFBIS
TAF AMD
KBIS 260240Z 2603/2624 02016G24KT P6SM OVC024
      TEMPO 2603/2606 5SM -SN
     FM261100 35010KT P6SM BKN050
     FM261600 36006KT P6SM BKN040
     FM262300 06004KT P6SM BKN050=

USA.gov is the U.S. government's official web portal to all federal, state and local government web resources and services.